LFOH

Le Havre Octeville Airport

Le Havre/Octeville, France
METAR LFOH 201930Z AUTO 07007KT CAVOK 11/08 Q1031
Observed Flight Rules
Oct-20 @ 19:30 UTC (29 minutes ago) Visual Flight Rules
Wind Visibility Clouds
70° at 7 knots 10,000+ meters
  • Clear skies
Temperatures Readings
Current 11°C / 52°F
Dewpoint 8°C / 46°F
Humidity 82%
Altimeter 30.44" Hg
Pressure 1031 hPa
Elevation 103
METAR LFOH 201930Z AUTO 07007KT CAVOK 11/08 Q1031
Observed Flight Rules
Oct-20 @ 19:30 UTC
(29 minutes ago)
VFR
Wind Visibility
70° at 7 knots 10,000+ meters
Clouds
  • Clear skies
Temperature Dewpoint
11°C / 52°F 8°C / 46°F
Humidity Altimeter Pressure
82% 30.44" Hg 1031 hPa